createdAt,value
2017-11-05T00:01:37.379Z,40.70
2017-11-05T00:04:03.608Z,38.73
2017-11-05T00:06:30.036Z,49.53
2017-11-05T00:08:56.659Z,43.10
2017-11-05T00:11:23.099Z,43.10
2017-11-05T00:13:49.741Z,36.00
2017-11-05T00:16:16.230Z,56.53
2017-11-05T00:18:42.676Z,38.30
2017-11-05T00:21:09.120Z,38.20
2017-11-05T00:23:35.514Z,38.50
2017-11-05T00:26:01.751Z,47.33
2017-11-05T00:28:28.353Z,58.93
2017-11-05T00:30:54.636Z,49.17
2017-11-05T00:33:21.075Z,47.63
2017-11-05T00:35:47.520Z,39.20
2017-11-05T00:38:14.058Z,47.00
2017-11-05T00:40:40.307Z,44.10
2017-11-05T00:43:06.574Z,50.57
2017-11-05T00:45:32.985Z,33.03
2017-11-05T00:47:59.600Z,43.40
2017-11-05T00:50:26.252Z,44.80
2017-11-05T00:52:52.885Z,37.17
2017-11-05T00:55:19.125Z,37.73
2017-11-05T00:57:45.373Z,37.27
2017-11-05T01:00:11.682Z,53.00
2017-11-05T01:02:37.929Z,54.47
2017-11-05T01:05:04.175Z,63.30
2017-11-05T01:07:30.763Z,45.50
2017-11-05T01:09:57.313Z,52.20
2017-11-05T01:12:23.845Z,43.97
2017-11-05T01:14:50.344Z,49.80
2017-11-05T01:17:16.778Z,45.27
2017-11-05T01:19:43.245Z,36.93
2017-11-05T01:22:09.528Z,40.83
2017-11-05T01:24:35.916Z,39.80
2017-11-05T01:27:02.143Z,36.97
2017-11-05T01:29:28.413Z,42.17
2017-11-05T01:31:54.880Z,34.67
2017-11-05T01:34:21.394Z,40.60
2017-11-05T01:36:48.081Z,37.87
2017-11-05T01:39:14.503Z,56.53
2017-11-05T01:41:40.921Z,48.80
2017-11-05T01:44:07.583Z,43.67
2017-11-05T01:46:34.223Z,47.30
2017-11-05T01:49:00.677Z,44.57
2017-11-05T01:51:26.954Z,44.50
2017-11-05T01:53:53.323Z,50.90
2017-11-05T01:56:19.559Z,65.07
2017-11-05T01:58:45.928Z,41.40
2017-11-05T02:01:12.187Z,51.37
2017-11-05T02:03:38.443Z,44.63
2017-11-05T02:06:04.711Z,38.13
2017-11-05T02:08:30.965Z,42.13
2017-11-05T02:10:57.201Z,37.70
2017-11-05T02:13:23.503Z,33.40
2017-11-05T02:15:49.748Z,34.87
2017-11-05T02:18:15.986Z,37.30
2017-11-05T02:20:42.269Z,33.00
2017-11-05T02:23:08.490Z,37.70
2017-11-05T02:25:34.731Z,63.28
2017-11-05T02:28:00.992Z,46.30
2017-11-05T02:30:27.215Z,43.50
2017-11-05T02:32:53.456Z,33.80
2017-11-05T02:35:19.721Z,44.28
2017-11-05T02:37:45.960Z,57.67
2017-11-05T02:40:12.213Z,41.97
2017-11-05T02:42:38.486Z,33.10
2017-11-05T02:45:04.724Z,41.97
2017-11-05T02:47:30.971Z,42.87
2017-11-05T02:49:57.268Z,35.97
2017-11-05T02:52:23.505Z,39.83
2017-11-05T02:54:49.732Z,72.87
2017-11-05T02:57:16.024Z,33.87
2017-11-05T02:59:42.264Z,40.87
2017-11-05T03:02:08.490Z,38.90
2017-11-05T03:04:34.755Z,40.90
2017-11-05T03:07:00.986Z,37.83
2017-11-05T03:09:27.230Z,41.80
2017-11-05T03:11:53.515Z,37.00
2017-11-05T03:14:19.756Z,33.70
2017-11-05T03:16:45.982Z,35.10
2017-11-05T03:19:12.252Z,30.47
2017-11-05T03:21:38.493Z,27.90
2017-11-05T03:24:04.712Z,30.23
2017-11-05T03:26:30.997Z,29.97
2017-11-05T03:28:57.230Z,32.43
2017-11-05T03:31:23.452Z,31.87
2017-11-05T03:33:49.733Z,39.47
2017-11-05T03:36:15.951Z,35.53
2017-11-05T03:38:42.190Z,30.87
2017-11-05T03:41:08.493Z,46.37
2017-11-05T03:43:34.834Z,29.53
2017-11-05T03:46:01.327Z,27.50
2017-11-05T03:48:27.869Z,26.97
2017-11-05T03:50:54.208Z,26.80
2017-11-05T03:53:20.442Z,27.77
2017-11-05T03:55:46.712Z,28.17
2017-11-05T03:58:12.922Z,31.23
2017-11-05T04:00:39.152Z,27.77
2017-11-05T04:03:05.430Z,29.23
2017-11-05T04:05:31.655Z,26.23
2017-11-05T04:07:57.907Z,28.30
2017-11-05T04:10:24.177Z,22.87
2017-11-05T04:12:50.425Z,25.03
2017-11-05T05:16:29.852Z,27.40
2017-11-05T05:18:56.102Z,26.33
2017-11-05T05:21:22.461Z,25.40
2017-11-05T05:23:49.104Z,25.33
2017-11-05T05:26:15.344Z,23.00
2017-11-05T05:28:41.581Z,25.63
2017-11-05T05:31:07.856Z,25.67
2017-11-05T05:33:34.096Z,23.60
2017-11-05T05:36:00.331Z,23.30
2017-11-05T05:38:26.681Z,20.23
2017-11-05T05:40:52.907Z,18.30
2017-11-05T05:43:19.152Z,17.23
2017-11-05T05:45:45.432Z,18.43
2017-11-05T05:48:11.657Z,18.17
2017-11-05T05:50:37.891Z,19.23
2017-11-05T05:53:04.192Z,19.47
2017-11-05T05:55:30.418Z,21.80
2017-11-05T05:57:56.660Z,28.20
2017-11-05T06:00:22.930Z,26.75
2017-11-05T06:02:49.175Z,24.90
2017-11-05T06:05:15.421Z,18.70
2017-11-05T06:07:41.696Z,24.33
2017-11-05T06:10:07.929Z,17.10
2017-11-05T06:12:34.169Z,16.60
2017-11-05T06:15:00.457Z,17.87
2017-11-05T06:17:26.715Z,18.50
2017-11-05T06:19:52.959Z,20.40
2017-11-05T06:22:19.230Z,24.47
2017-11-05T06:24:45.455Z,21.63
2017-11-05T06:27:11.682Z,22.10
2017-11-05T06:29:37.962Z,22.50
2017-11-05T06:32:04.194Z,23.80
2017-11-05T06:34:30.423Z,21.80
2017-11-05T06:36:56.713Z,22.17
2017-11-05T06:39:22.942Z,23.87
2017-11-05T06:41:49.180Z,20.30
2017-11-05T06:44:15.655Z,23.27
2017-11-05T06:46:41.897Z,19.93
2017-11-05T06:49:08.145Z,19.83
2017-11-05T06:51:34.437Z,20.00
2017-11-05T06:54:00.660Z,20.53
2017-11-05T06:56:26.887Z,20.27
2017-11-05T06:58:53.191Z,21.50
2017-11-05T07:01:19.423Z,18.63
2017-11-05T07:03:45.664Z,17.50
2017-11-05T07:06:11.930Z,17.30
2017-11-05T07:08:38.169Z,20.47
2017-11-05T07:11:04.394Z,16.70
2017-11-05T07:13:30.676Z,17.20
2017-11-05T07:15:57.069Z,16.23
2017-11-05T07:18:23.278Z,22.10
2017-11-05T07:20:49.550Z,19.80
2017-11-05T07:23:15.768Z,15.77
2017-11-05T07:25:42.011Z,15.33
2017-11-05T07:28:08.295Z,12.60
2017-11-05T07:30:34.529Z,13.80
2017-11-05T07:33:00.779Z,12.50
2017-11-05T07:35:27.031Z,10.17
2017-11-05T07:37:53.260Z,10.50
2017-11-05T07:40:19.481Z,10.23
2017-11-05T07:42:45.747Z,7.60
2017-11-05T07:45:11.957Z,7.20
2017-11-05T07:47:38.237Z,8.03
2017-11-05T07:50:04.519Z,7.10
2017-11-05T07:52:30.756Z,7.23
2017-11-05T07:54:56.985Z,7.10
2017-11-05T07:57:23.260Z,7.23
2017-11-05T07:59:49.495Z,8.00
2017-11-05T08:02:15.739Z,6.70
2017-11-05T08:04:41.997Z,7.70
2017-11-05T08:07:08.277Z,8.10
2017-11-05T08:09:34.506Z,8.93
2017-11-05T08:12:00.757Z,8.07
2017-11-05T08:14:26.993Z,8.10
2017-11-05T08:16:53.229Z,8.50
2017-11-05T08:19:19.486Z,9.77
2017-11-05T08:21:45.701Z,8.83
2017-11-05T08:24:11.942Z,9.13
2017-11-05T08:26:38.219Z,8.17
2017-11-05T08:29:04.446Z,9.77
2017-11-05T08:31:30.685Z,8.43
2017-11-05T08:33:56.948Z,8.17
2017-11-05T08:36:23.174Z,9.13
2017-11-05T08:38:49.410Z,8.50
2017-11-05T08:41:15.693Z,8.90
2017-11-05T08:43:41.926Z,8.47
2017-11-05T08:46:08.135Z,7.37
2017-11-05T08:48:34.401Z,7.87
2017-11-05T08:51:00.630Z,9.33
2017-11-05T08:53:26.868Z,10.90
2017-11-05T08:55:53.138Z,14.80
2017-11-05T08:58:19.355Z,16.13
2017-11-05T09:00:45.596Z,15.23
2017-11-05T09:03:11.942Z,11.23
2017-11-05T09:05:38.160Z,15.77
2017-11-05T09:08:04.378Z,12.07
2017-11-05T09:10:30.655Z,12.93
2017-11-05T09:12:56.903Z,14.60
2017-11-05T09:15:23.152Z,14.63
2017-11-05T09:17:49.435Z,14.50
2017-11-05T09:20:15.676Z,13.10
2017-11-05T09:22:41.917Z,13.30
2017-11-05T09:25:08.212Z,13.63
2017-11-05T09:27:34.455Z,13.50
2017-11-05T09:30:00.966Z,12.73
2017-11-05T09:32:27.478Z,11.80
2017-11-05T09:34:53.696Z,12.87
2017-11-05T09:37:19.959Z,9.00
2017-11-05T09:39:46.456Z,7.70
2017-11-05T09:42:12.667Z,4.87
2017-11-05T09:44:39.129Z,3.13
2017-11-05T09:47:05.655Z,4.53
2017-11-05T09:49:32.094Z,3.10
2017-11-05T09:51:58.515Z,2.90
2017-11-05T09:54:24.972Z,2.40
2017-11-05T09:56:51.375Z,2.40
2017-11-05T09:59:17.646Z,3.20
2017-11-05T10:01:44.285Z,3.30
2017-11-05T10:04:10.700Z,1.80
2017-11-05T10:06:37.142Z,5.13
2017-11-05T10:09:03.423Z,4.10
2017-11-05T10:11:29.646Z,4.87
2017-11-05T10:13:55.887Z,3.17
2017-11-05T10:16:22.311Z,3.30
2017-11-05T10:18:48.905Z,1.67
2017-11-05T10:21:15.150Z,1.43
2017-11-05T10:23:41.583Z,1.17
2017-11-05T10:26:08.018Z,1.60
2017-11-05T10:28:34.479Z,1.70
2017-11-05T10:31:00.884Z,1.20
2017-11-05T10:33:27.511Z,1.50
2017-11-05T10:35:54.160Z,1.60
2017-11-05T10:38:20.785Z,1.70
2017-11-05T10:40:47.232Z,2.23
2017-11-05T10:43:13.872Z,2.50
2017-11-05T10:45:40.361Z,1.90
2017-11-05T10:48:06.811Z,5.07
2017-11-05T10:50:33.327Z,5.90
2017-11-05T10:53:00.014Z,3.30
2017-11-05T10:55:26.636Z,2.10
2017-11-05T10:57:52.879Z,2.00
2017-11-05T11:00:19.329Z,1.40
2017-11-05T11:02:45.939Z,2.60
2017-11-05T11:05:12.171Z,3.27
2017-11-05T11:07:38.618Z,1.70
2017-11-05T11:10:05.257Z,1.47
2017-11-05T11:12:31.882Z,5.57
2017-11-05T11:14:58.343Z,3.23
2017-11-05T11:17:24.770Z,3.60
2017-11-05T11:19:51.401Z,1.90
2017-11-05T11:22:17.901Z,1.67
2017-11-05T11:24:44.266Z,2.57
2017-11-05T11:27:10.715Z,2.90
2017-11-05T11:29:37.134Z,4.00
2017-11-05T11:32:03.420Z,3.53
2017-11-05T11:34:29.961Z,2.30
2017-11-05T11:36:56.380Z,2.00
2017-11-05T11:39:22.657Z,1.97
2017-11-05T11:41:49.139Z,2.23
2017-11-05T11:44:15.580Z,4.53
2017-11-05T11:46:42.022Z,2.23
2017-11-05T11:49:08.465Z,3.10
2017-11-05T11:51:34.829Z,2.60
2017-11-05T11:54:01.123Z,2.90
2017-11-05T11:56:27.640Z,2.30
2017-11-05T11:58:53.875Z,3.10
2017-11-05T12:01:20.123Z,2.30
2017-11-05T12:03:46.395Z,3.33
2017-11-05T12:06:12.659Z,2.23
2017-11-05T12:08:38.894Z,2.30
2017-11-05T12:11:05.152Z,2.13
2017-11-05T12:13:31.396Z,2.03
2017-11-05T12:15:57.605Z,2.40
2017-11-05T12:18:23.860Z,2.90
2017-11-05T12:20:50.136Z,3.90
2017-11-05T12:23:16.482Z,2.30
2017-11-05T12:25:42.898Z,7.83
2017-11-05T12:28:09.156Z,3.70
2017-11-05T12:30:35.376Z,5.20
2017-11-05T12:33:01.588Z,7.40
2017-11-05T12:35:27.863Z,3.10
2017-11-05T12:37:54.107Z,2.50
2017-11-05T12:40:20.327Z,2.70
2017-11-05T12:42:46.620Z,2.80
2017-11-05T12:45:12.843Z,2.47
2017-11-05T12:47:39.046Z,2.50
2017-11-05T12:50:05.313Z,2.60
2017-11-05T12:52:31.511Z,2.60
2017-11-05T12:54:57.723Z,2.53
2017-11-05T12:57:23.997Z,3.07
2017-11-05T12:59:50.221Z,3.27
2017-11-05T13:02:16.449Z,2.70
2017-11-05T13:04:42.728Z,2.83
2017-11-05T13:07:08.949Z,2.90
2017-11-05T13:09:35.190Z,2.77
2017-11-05T13:12:01.605Z,2.60
2017-11-05T13:14:27.825Z,3.50
2017-11-05T13:16:54.265Z,2.60
2017-11-05T13:19:20.545Z,2.70
2017-11-05T13:21:46.777Z,4.23
2017-11-05T13:24:13.020Z,4.07
2017-11-05T13:26:39.287Z,3.93
2017-11-05T13:29:05.534Z,2.80
2017-11-05T13:31:32.104Z,3.10
2017-11-05T13:33:58.448Z,2.80
2017-11-05T13:36:24.705Z,3.70
2017-11-05T13:38:50.957Z,3.93
2017-11-05T13:41:17.230Z,3.20
2017-11-05T13:43:43.479Z,2.97
2017-11-05T13:46:10.115Z,3.50
2017-11-05T13:48:36.396Z,4.20
2017-11-05T13:51:02.625Z,4.30
2017-11-05T13:53:28.869Z,4.30
2017-11-05T13:55:55.207Z,4.10
2017-11-05T13:58:21.499Z,4.57
2017-11-05T14:00:47.745Z,3.90
2017-11-05T14:03:13.952Z,4.20
2017-11-05T14:05:40.221Z,3.90
2017-11-05T14:08:06.635Z,4.40
2017-11-05T14:10:32.904Z,6.10
2017-11-05T14:12:59.186Z,4.63
2017-11-05T14:15:25.433Z,5.80
2017-11-05T14:17:51.670Z,4.93
2017-11-05T14:20:17.948Z,5.63
2017-11-05T14:22:44.189Z,4.53
2017-11-05T14:25:10.430Z,5.37
2017-11-05T14:27:36.777Z,6.13
2017-11-05T14:30:03.025Z,4.73
2017-11-05T14:32:29.282Z,6.70
2017-11-05T14:34:55.553Z,4.90
2017-11-05T14:37:21.780Z,5.47
2017-11-05T14:39:47.983Z,5.10
2017-11-05T14:42:14.217Z,4.83
2017-11-05T14:44:40.453Z,6.37
2017-11-05T14:47:06.705Z,5.03
2017-11-05T14:49:32.986Z,7.73
2017-11-05T14:51:59.216Z,8.33
2017-11-05T14:54:25.427Z,7.00
2017-11-05T14:56:51.672Z,6.90
2017-11-05T14:59:17.912Z,8.47
2017-11-05T15:01:44.138Z,14.60
2017-11-05T15:04:10.401Z,9.30
2017-11-05T15:06:36.640Z,11.00
2017-11-05T15:09:02.889Z,10.53
2017-11-05T15:11:29.161Z,10.07
2017-11-05T15:13:55.388Z,20.00
2017-11-05T15:16:21.622Z,11.67
2017-11-05T15:18:47.903Z,12.63
2017-11-05T15:21:14.133Z,10.53
2017-11-05T15:23:40.362Z,12.07
2017-11-05T15:26:06.680Z,12.07
2017-11-05T15:28:32.896Z,11.90
2017-11-05T15:30:59.147Z,15.03
2017-11-05T15:33:25.648Z,13.77
2017-11-05T15:35:51.883Z,14.77
2017-11-05T15:38:18.109Z,15.57
2017-11-05T15:40:44.399Z,17.83
2017-11-05T15:43:10.628Z,16.20
2017-11-05T15:45:36.980Z,14.80
2017-11-05T15:48:03.241Z,15.20
2017-11-05T15:50:29.471Z,10.57
2017-11-05T15:52:55.699Z,11.70
2017-11-05T15:55:21.961Z,10.87
2017-11-05T15:57:48.241Z,12.67
2017-11-05T16:00:14.485Z,12.80
2017-11-05T16:02:40.754Z,14.20
2017-11-05T16:05:06.995Z,13.67
2017-11-05T16:07:33.241Z,12.60
2017-11-05T16:09:59.780Z,14.10
2017-11-05T16:12:26.006Z,22.27
2017-11-05T16:14:52.264Z,20.27
2017-11-05T16:17:18.822Z,14.10
2017-11-05T16:19:44.848Z,19.37
2017-11-05T16:22:11.098Z,27.73
2017-11-05T16:24:37.387Z,17.63
2017-11-05T16:27:03.634Z,19.10
2017-11-05T16:29:29.887Z,21.50
2017-11-05T16:31:56.157Z,18.80
2017-11-05T16:34:22.407Z,20.57
2017-11-05T16:36:48.628Z,21.43
2017-11-05T16:39:14.891Z,23.30
2017-11-05T16:41:41.332Z,25.23
2017-11-05T16:44:07.573Z,15.23
2017-11-05T16:46:33.815Z,19.00
2017-11-05T16:49:00.086Z,20.20
2017-11-05T16:51:26.316Z,20.20
2017-11-05T16:53:52.606Z,28.97
2017-11-05T16:56:18.937Z,15.60
2017-11-05T16:58:45.184Z,56.23
2017-11-05T17:01:11.448Z,16.07
2017-11-05T17:03:37.701Z,13.70
2017-11-05T17:06:03.967Z,20.47
2017-11-05T17:08:30.270Z,13.33
2017-11-05T17:10:56.522Z,15.40
2017-11-05T17:13:22.763Z,14.30
2017-11-05T17:15:49.058Z,12.87
2017-11-05T17:18:15.303Z,15.30
2017-11-05T17:20:41.546Z,14.90
2017-11-05T17:23:07.824Z,19.70
2017-11-05T17:25:34.103Z,18.93
2017-11-05T17:28:00.342Z,27.83
2017-11-05T17:30:26.622Z,51.87
2017-11-05T17:32:52.860Z,21.43
2017-11-05T17:35:19.104Z,38.67
2017-11-05T17:37:45.410Z,18.30
2017-11-05T17:40:11.631Z,25.10
2017-11-05T17:42:37.885Z,23.50
2017-11-05T17:45:04.322Z,29.10
2017-11-05T17:47:30.577Z,17.67
2017-11-05T17:49:56.834Z,19.20
2017-11-05T17:52:23.128Z,28.07
2017-11-05T17:54:49.392Z,33.93
2017-11-05T17:57:15.657Z,24.23
2017-11-05T17:59:41.957Z,22.87
2017-11-05T18:02:08.195Z,18.20
2017-11-05T18:04:34.427Z,21.10
2017-11-05T18:07:00.704Z,20.30
2017-11-05T18:09:26.938Z,18.77
2017-11-05T18:11:53.165Z,22.53
2017-11-05T18:14:19.482Z,20.47
2017-11-05T18:16:45.733Z,17.40
2017-11-05T18:19:12.007Z,17.87
2017-11-05T18:21:38.299Z,18.00
2017-11-05T18:24:04.528Z,17.93
2017-11-05T18:26:30.806Z,17.20
2017-11-05T18:28:57.101Z,16.90
2017-11-05T18:31:23.326Z,19.00
2017-11-05T18:33:49.570Z,18.90
2017-11-05T18:36:15.849Z,24.70
2017-11-05T18:38:42.072Z,22.10
2017-11-05T18:41:08.316Z,19.60
2017-11-05T18:43:34.589Z,19.80
2017-11-05T18:46:00.838Z,19.43
2017-11-05T18:48:27.069Z,17.13
2017-11-05T18:50:53.378Z,18.60
2017-11-05T18:53:19.605Z,19.07
2017-11-05T18:55:45.877Z,16.40
2017-11-05T18:58:12.156Z,23.67
2017-11-05T19:00:38.407Z,17.20
2017-11-05T19:03:04.720Z,16.80
2017-11-05T19:05:31.000Z,39.03
2017-11-05T19:07:57.236Z,25.10
2017-11-05T19:10:23.462Z,22.30
2017-11-05T19:12:49.745Z,18.67
2017-11-05T19:15:15.972Z,20.12
2017-11-05T19:17:42.204Z,19.33
2017-11-05T19:20:08.502Z,24.57
2017-11-05T19:22:34.735Z,17.50
2017-11-05T19:25:00.987Z,19.87
2017-11-05T19:27:27.359Z,19.13
2017-11-05T19:29:53.602Z,18.07
2017-11-05T19:32:19.821Z,17.63
2017-11-05T19:34:46.107Z,17.57
2017-11-05T19:37:12.347Z,17.57
2017-11-05T19:39:38.594Z,17.80
2017-11-05T19:42:04.892Z,17.43
2017-11-05T19:44:31.115Z,17.43
2017-11-05T19:46:57.330Z,19.60
2017-11-05T19:49:23.605Z,19.50
2017-11-05T19:51:49.863Z,18.13
2017-11-05T19:54:16.105Z,33.03
2017-11-05T19:56:42.388Z,33.20
2017-11-05T19:59:08.623Z,21.27
2017-11-05T20:01:34.872Z,19.40
2017-11-05T20:04:01.156Z,20.30
2017-11-05T20:06:27.396Z,22.07
2017-11-05T20:08:53.639Z,22.83
2017-11-05T20:11:19.914Z,27.00
2017-11-05T20:13:46.144Z,23.60
2017-11-05T20:16:12.399Z,39.83
2017-11-05T20:18:38.686Z,22.60
2017-11-05T20:21:04.918Z,19.07
2017-11-05T20:23:31.159Z,20.60
2017-11-05T20:25:57.439Z,18.47
2017-11-05T20:28:23.703Z,20.23
2017-11-05T20:30:49.935Z,16.43
2017-11-05T20:33:16.262Z,21.87
2017-11-05T20:35:42.485Z,16.30
2017-11-05T20:38:08.705Z,17.43
2017-11-05T20:40:34.975Z,16.73
2017-11-05T20:43:01.253Z,22.37
2017-11-05T20:45:27.494Z,18.60
2017-11-05T20:47:53.786Z,16.90
2017-11-05T20:50:20.024Z,18.30
2017-11-05T20:52:46.270Z,15.37
2017-11-05T20:55:12.534Z,17.50
2017-11-05T20:57:38.754Z,16.73
2017-11-05T21:00:05.007Z,16.33
2017-11-05T21:02:31.302Z,17.90
2017-11-05T21:04:57.528Z,16.60
2017-11-05T21:07:23.757Z,16.10
2017-11-05T21:09:50.016Z,16.97
2017-11-05T21:12:16.267Z,14.20
2017-11-05T21:14:42.500Z,16.60
2017-11-05T21:17:08.772Z,14.83
2017-11-05T21:19:35.004Z,18.17
2017-11-05T21:22:01.236Z,17.83
2017-11-05T21:24:27.505Z,18.97
2017-11-05T21:26:53.747Z,24.37
2017-11-05T21:29:19.995Z,24.90
2017-11-05T21:31:46.248Z,23.10
2017-11-05T21:34:12.472Z,23.47
2017-11-05T21:36:38.734Z,23.90
2017-11-05T21:39:05.004Z,20.83
2017-11-05T21:41:31.236Z,21.87
2017-11-05T21:43:57.463Z,22.13
2017-11-05T21:46:23.747Z,22.23
2017-11-05T21:48:49.978Z,26.23
2017-11-05T21:51:16.211Z,27.10
2017-11-05T21:53:42.453Z,29.30
2017-11-05T21:56:08.694Z,27.30
2017-11-05T21:58:34.929Z,28.30
2017-11-05T22:01:01.224Z,34.13
2017-11-05T22:03:27.466Z,28.50
2017-11-05T22:05:53.697Z,21.67
2017-11-05T22:08:20.008Z,23.10
2017-11-05T22:10:46.263Z,24.93
2017-11-05T22:13:12.509Z,21.87
2017-11-05T22:15:38.764Z,20.80
2017-11-05T22:18:05.000Z,18.40
2017-11-05T22:20:31.213Z,17.77
2017-11-05T22:22:57.485Z,17.90
2017-11-05T22:25:23.751Z,20.60
2017-11-05T22:27:49.983Z,19.17
2017-11-05T22:30:16.256Z,17.33
2017-11-05T22:32:42.496Z,16.13
2017-11-05T22:35:08.776Z,16.77
2017-11-05T22:37:35.079Z,18.33
2017-11-05T22:40:01.313Z,15.83
2017-11-05T22:42:27.611Z,18.47
2017-11-05T22:44:53.901Z,21.60
2017-11-05T22:47:20.143Z,20.30
2017-11-05T22:49:46.396Z,22.87
2017-11-05T22:52:12.688Z,21.60
2017-11-05T22:54:38.902Z,21.63
2017-11-05T22:57:05.122Z,18.23
2017-11-05T22:59:31.404Z,17.50
2017-11-05T23:01:57.629Z,16.37
2017-11-05T23:04:23.879Z,18.53
2017-11-05T23:06:50.162Z,19.10
2017-11-05T23:09:16.384Z,21.03
2017-11-05T23:11:42.660Z,20.17
2017-11-05T23:14:08.918Z,20.97
2017-11-05T23:16:35.136Z,22.13
2017-11-05T23:19:01.361Z,20.63
2017-11-05T23:21:27.624Z,21.50
2017-11-05T23:23:53.872Z,23.80
2017-11-05T23:26:20.100Z,24.73
2017-11-05T23:28:46.362Z,21.70
2017-11-05T23:31:12.593Z,24.47
2017-11-05T23:33:38.818Z,21.20
2017-11-05T23:36:05.103Z,19.20
2017-11-05T23:38:31.305Z,20.93
2017-11-05T23:40:57.555Z,20.10
2017-11-05T23:43:23.820Z,19.80
2017-11-05T23:45:50.057Z,18.57
2017-11-05T23:48:16.267Z,17.63
2017-11-05T23:50:42.556Z,16.60
2017-11-05T23:53:08.798Z,17.83
2017-11-05T23:55:35.016Z,16.97
2017-11-05T23:58:01.315Z,18.50
